createdAt,value
2022-12-28T00:01:47.885Z,6.63
2022-12-28T00:04:17.993Z,6.80
2022-12-28T00:06:45.653Z,6.32
2022-12-28T00:09:13.382Z,6.43
2022-12-28T00:11:40.651Z,6.38
2022-12-28T00:14:08.213Z,6.78
2022-12-28T00:16:37.485Z,5.65
2022-12-28T00:19:07.668Z,6.43
2022-12-28T00:21:34.969Z,6.70
2022-12-28T00:24:02.502Z,6.25
2022-12-28T00:26:32.173Z,6.82
2022-12-28T00:29:04.896Z,5.72
2022-12-28T00:31:33.400Z,6.18
2022-12-28T00:34:00.859Z,6.65
2022-12-28T00:37:08.748Z,6.57
2022-12-28T00:39:15.217Z,6.05
2022-12-28T00:41:42.398Z,6.10
2022-12-28T00:44:09.727Z,6.50
2022-12-28T00:46:37.102Z,5.97
2022-12-28T00:49:04.372Z,6.70
2022-12-28T00:51:31.474Z,6.40
2022-12-28T00:53:58.624Z,6.82
2022-12-28T00:56:25.932Z,6.97
2022-12-28T00:58:57.799Z,7.35
2022-12-28T01:01:26.391Z,6.80
2022-12-28T01:03:56.089Z,7.05
2022-12-28T01:06:23.163Z,6.03
2022-12-28T01:08:50.334Z,6.75
2022-12-28T01:11:21.672Z,7.60
2022-12-28T01:13:50.619Z,6.32
2022-12-28T01:16:29.399Z,6.40
2022-12-28T01:18:59.422Z,6.50
2022-12-28T01:21:29.229Z,6.70
2022-12-28T01:24:01.938Z,6.43
2022-12-28T01:26:29.412Z,6.68
2022-12-28T01:28:57.813Z,7.10
2022-12-28T01:31:25.180Z,6.63
2022-12-28T01:33:52.629Z,8.43
2022-12-28T01:36:25.511Z,8.18
2022-12-28T01:38:55.098Z,9.68
2022-12-28T01:41:22.763Z,9.63
2022-12-28T01:43:52.713Z,10.50
2022-12-28T01:46:45.973Z,10.23
2022-12-28T01:49:24.525Z,10.93
2022-12-28T01:52:19.938Z,10.82
2022-12-28T01:54:51.212Z,11.95
2022-12-28T01:57:21.872Z,10.82
2022-12-28T01:59:56.920Z,11.55
2022-12-28T02:02:24.544Z,11.15
2022-12-28T02:04:51.768Z,11.07
2022-12-28T02:07:42.673Z,10.93
2022-12-28T02:10:41.399Z,10.20
2022-12-28T02:12:59.561Z,10.43
2022-12-28T02:15:26.703Z,10.60
2022-12-28T02:17:53.834Z,10.63
2022-12-28T02:20:21.295Z,11.00
2022-12-28T02:23:12.035Z,10.75
2022-12-28T02:26:00.132Z,11.45
2022-12-28T02:28:45.630Z,11.27
2022-12-28T02:31:21.542Z,10.70
2022-12-28T02:34:11.360Z,11.43
2022-12-28T02:36:49.581Z,10.60
2022-12-28T02:39:22.190Z,12.15
2022-12-28T02:41:51.667Z,11.32
2022-12-28T02:44:39.109Z,11.18
2022-12-28T02:47:31.691Z,12.15
2022-12-28T02:50:06.533Z,11.25
2022-12-28T02:53:18.717Z,11.60
2022-12-28T02:56:10.521Z,10.95
2022-12-28T02:58:47.995Z,10.77
2022-12-28T03:01:26.899Z,10.80
2022-12-28T03:04:12.359Z,11.30
2022-12-28T03:07:13.648Z,10.77
2022-12-28T03:09:54.840Z,10.88
2022-12-28T03:12:30.034Z,10.57
2022-12-28T03:15:08.655Z,10.88
2022-12-28T03:17:58.210Z,10.85
2022-12-28T03:20:47.079Z,10.80
2022-12-28T03:23:36.296Z,9.93
2022-12-28T03:26:27.008Z,10.43
2022-12-28T03:29:14.454Z,9.70
2022-12-28T03:31:42.226Z,10.57
2022-12-28T03:34:09.665Z,9.50
2022-12-28T03:36:43.938Z,9.95
2022-12-28T03:39:30.010Z,9.90
2022-12-28T03:42:53.080Z,9.75
2022-12-28T03:45:45.411Z,9.32
2022-12-28T03:48:16.306Z,10.35
2022-12-28T03:50:47.302Z,10.80
2022-12-28T03:53:16.588Z,10.30
2022-12-28T03:55:43.902Z,10.02
2022-12-28T03:58:11.071Z,10.15
2022-12-28T04:00:38.150Z,11.18
2022-12-28T04:03:05.385Z,11.40
2022-12-28T04:05:32.873Z,11.35
2022-12-28T04:07:59.965Z,10.93
2022-12-28T04:10:27.253Z,11.70
2022-12-28T04:12:57.350Z,11.63
2022-12-28T04:15:24.447Z,12.15
2022-12-28T04:17:51.594Z,12.52
2022-12-28T04:20:18.795Z,11.60
2022-12-28T04:22:45.971Z,11.40
2022-12-28T04:25:13.149Z,12.70
2022-12-28T04:27:40.198Z,12.40
2022-12-28T04:30:07.895Z,11.25
2022-12-28T04:32:35.820Z,11.68
2022-12-28T04:35:03.454Z,11.20
2022-12-28T04:37:31.404Z,11.52
2022-12-28T04:39:58.508Z,11.55
2022-12-28T04:42:26.323Z,11.07
2022-12-28T04:44:53.777Z,10.93
2022-12-28T04:47:21.076Z,11.35
2022-12-28T04:49:48.359Z,11.00
2022-12-28T04:52:15.450Z,10.70
2022-12-28T04:54:42.536Z,10.70
2022-12-28T04:57:09.640Z,11.02
2022-12-28T04:59:36.722Z,11.38
2022-12-28T05:02:04.786Z,12.55
2022-12-28T05:04:32.331Z,11.52
2022-12-28T05:06:59.745Z,12.32
2022-12-28T05:09:26.849Z,12.05
2022-12-28T05:11:54.149Z,11.80
2022-12-28T05:14:21.262Z,13.85
2022-12-28T05:16:51.819Z,13.15
2022-12-28T05:19:19.139Z,13.45
2022-12-28T05:21:46.202Z,13.07
2022-12-28T05:24:13.837Z,13.45
2022-12-28T05:26:40.882Z,13.45
2022-12-28T05:29:08.113Z,13.25
2022-12-28T05:31:35.300Z,14.10
2022-12-28T05:34:02.542Z,13.73
2022-12-28T05:36:29.618Z,13.93
2022-12-28T05:38:57.011Z,14.32
2022-12-28T05:41:27.406Z,13.60
2022-12-28T05:43:55.653Z,14.70
2022-12-28T05:46:33.959Z,14.63
2022-12-28T05:49:01.727Z,14.38
2022-12-28T05:51:31.120Z,13.75
2022-12-28T05:54:06.037Z,13.77
2022-12-28T05:56:33.925Z,14.85
2022-12-28T05:59:04.103Z,14.52
2022-12-28T06:01:39.962Z,14.90
2022-12-28T06:04:27.412Z,14.38
2022-12-28T06:06:55.088Z,15.55
2022-12-28T06:09:22.176Z,15.02
2022-12-28T06:11:49.481Z,14.60
2022-12-28T06:14:16.713Z,14.80
2022-12-28T06:16:44.186Z,14.30
2022-12-28T06:19:14.813Z,14.55
2022-12-28T06:21:42.610Z,14.77
2022-12-28T06:24:10.828Z,14.32
2022-12-28T06:26:39.512Z,14.57
2022-12-28T06:29:06.620Z,14.55
2022-12-28T06:31:36.174Z,14.80
2022-12-28T06:34:05.396Z,15.40
2022-12-28T06:36:35.195Z,14.18
2022-12-28T06:39:04.295Z,14.00
2022-12-28T06:41:31.517Z,12.73
2022-12-28T06:43:59.432Z,13.30
2022-12-28T06:46:28.678Z,12.20
2022-12-28T06:48:56.146Z,13.18
2022-12-28T06:51:26.556Z,12.68
2022-12-28T06:53:54.804Z,12.52
2022-12-28T06:56:30.955Z,12.32
2022-12-28T06:59:03.217Z,11.88
2022-12-28T07:04:04.865Z,11.20
2022-12-28T07:06:39.164Z,11.05
2022-12-28T07:09:09.600Z,11.68
2022-12-28T07:11:37.335Z,10.57
2022-12-28T07:14:04.765Z,11.93
2022-12-28T07:18:59.923Z,12.25
2022-12-28T07:21:30.412Z,11.07
2022-12-28T07:23:58.362Z,12.15
2022-12-28T07:26:33.658Z,10.32
2022-12-28T07:29:03.924Z,9.95
2022-12-28T07:31:39.741Z,11.23
2022-12-28T07:34:11.100Z,9.95
2022-12-28T07:36:38.244Z,11.30
2022-12-28T07:39:05.452Z,10.82
2022-12-28T07:41:36.247Z,11.77
2022-12-28T07:44:03.773Z,12.15
2022-12-28T07:46:33.886Z,10.77
2022-12-28T07:49:01.394Z,10.52
2022-12-28T07:51:31.399Z,11.48
2022-12-28T07:53:59.452Z,12.65
2022-12-28T07:56:28.528Z,11.85
2022-12-28T07:59:01.194Z,12.45
2022-12-28T08:01:31.939Z,11.98
2022-12-28T08:04:02.199Z,12.07
2022-12-28T08:06:30.643Z,12.80
2022-12-28T08:09:00.742Z,13.52
2022-12-28T08:11:30.534Z,13.68
2022-12-28T08:13:59.057Z,12.68
2022-12-28T08:16:28.657Z,12.65
2022-12-28T08:18:55.820Z,12.10
2022-12-28T08:21:29.928Z,13.00
2022-12-28T08:23:57.786Z,13.38
2022-12-28T08:26:36.425Z,13.15
2022-12-28T08:29:06.332Z,12.88
2022-12-28T08:31:35.982Z,12.95
2022-12-28T08:34:05.221Z,12.88
2022-12-28T08:36:32.823Z,12.80
2022-12-28T08:39:01.341Z,13.43
2022-12-28T08:41:29.747Z,12.85
2022-12-28T08:43:57.537Z,12.40
2022-12-28T08:46:25.784Z,12.65
2022-12-28T08:48:54.781Z,12.90
2022-12-28T08:51:29.722Z,12.95
2022-12-28T08:53:57.062Z,12.52
2022-12-28T08:56:27.907Z,12.70
2022-12-28T08:58:55.844Z,13.25
2022-12-28T09:01:25.323Z,12.88
2022-12-28T09:03:55.297Z,14.30
2022-12-28T09:06:25.866Z,13.52
2022-12-28T09:09:05.364Z,13.52
2022-12-28T09:11:37.494Z,12.68
2022-12-28T09:14:06.605Z,12.40
2022-12-28T09:16:34.277Z,12.10
2022-12-28T09:19:04.253Z,15.45
2022-12-28T09:21:34.838Z,13.57
2022-12-28T09:24:02.812Z,12.95
2022-12-28T09:26:32.078Z,13.35
2022-12-28T09:29:01.989Z,13.30
2022-12-28T09:31:31.163Z,12.88
2022-12-28T09:36:49.557Z,12.50
2022-12-28T09:39:19.987Z,12.45
2022-12-28T09:41:56.330Z,13.00
2022-12-28T09:44:45.287Z,12.77
2022-12-28T09:47:35.274Z,12.90
2022-12-28T09:50:02.819Z,12.13
2022-12-28T09:52:59.735Z,12.30
2022-12-28T09:55:27.998Z,11.80
2022-12-28T09:57:58.918Z,11.90
2022-12-28T10:00:47.926Z,12.57
2022-12-28T10:03:27.051Z,13.13
2022-12-28T10:05:57.577Z,13.25
2022-12-28T10:08:26.666Z,12.43
2022-12-28T10:10:54.505Z,11.75
2022-12-28T10:13:54.725Z,12.93
2022-12-28T10:16:23.629Z,13.27
2022-12-28T10:18:51.144Z,13.00
2022-12-28T10:21:22.334Z,12.43
2022-12-28T10:24:29.591Z,11.02
2022-12-28T10:26:44.521Z,11.20
2022-12-28T10:29:20.260Z,11.05
2022-12-28T10:32:12.746Z,11.48
2022-12-28T10:34:56.665Z,11.25
2022-12-28T10:37:26.672Z,11.70
2022-12-28T10:40:03.834Z,12.15
2022-12-28T10:42:42.762Z,11.32
2022-12-28T10:45:22.699Z,11.80
2022-12-28T10:47:55.520Z,12.23
2022-12-28T10:50:49.169Z,12.25
2022-12-28T10:53:28.283Z,11.40
2022-12-28T10:56:12.007Z,12.23
2022-12-28T10:58:47.222Z,12.60
2022-12-28T11:01:15.119Z,12.63
2022-12-28T11:03:45.912Z,12.02
2022-12-28T11:06:13.542Z,13.10
2022-12-28T11:08:42.123Z,12.77
2022-12-28T11:11:22.566Z,13.75
2022-12-28T11:14:00.619Z,13.25
2022-12-28T11:16:30.099Z,13.90
2022-12-28T11:18:58.449Z,13.88
2022-12-28T11:21:25.838Z,13.80
2022-12-28T11:23:53.780Z,14.98
2022-12-28T11:26:22.149Z,14.57
2022-12-28T11:28:52.025Z,15.38
2022-12-28T11:31:33.764Z,15.25
2022-12-28T11:34:04.750Z,16.60
2022-12-28T11:36:38.659Z,16.25
2022-12-28T11:39:27.518Z,15.85
2022-12-28T11:42:38.319Z,15.98
2022-12-28T11:44:52.990Z,15.30
2022-12-28T11:47:35.750Z,15.70
2022-12-28T11:50:36.747Z,14.88
2022-12-28T11:53:27.837Z,14.68
2022-12-28T11:56:08.451Z,15.07
2022-12-28T11:58:42.325Z,14.50
2022-12-28T12:01:11.534Z,14.40
2022-12-28T12:03:57.245Z,14.75
2022-12-28T12:06:42.782Z,13.35
2022-12-28T12:09:21.830Z,14.50
2022-12-28T12:11:50.724Z,14.40
2022-12-28T12:14:41.130Z,13.98
2022-12-28T12:17:22.794Z,14.25
2022-12-28T12:19:55.826Z,13.45
2022-12-28T12:25:03.218Z,13.35
2022-12-28T12:27:38.576Z,12.73
2022-12-28T12:30:19.838Z,12.85
2022-12-28T12:32:58.612Z,12.60
2022-12-28T12:35:31.273Z,11.98
2022-12-28T12:38:10.306Z,12.15
2022-12-28T12:40:46.359Z,11.50
2022-12-28T12:43:41.440Z,11.40
2022-12-28T12:46:37.587Z,10.93
2022-12-28T12:49:51.894Z,9.95
2022-12-28T12:52:30.679Z,10.88
2022-12-28T12:55:11.784Z,11.00
2022-12-28T12:57:51.169Z,10.80
2022-12-28T13:00:20.775Z,11.10
2022-12-28T13:02:53.557Z,10.32
2022-12-28T13:07:50.556Z,11.15
2022-12-28T13:10:24.812Z,10.45
2022-12-28T13:12:59.899Z,9.98
2022-12-28T13:15:27.909Z,10.93
2022-12-28T13:21:10.523Z,9.60
2022-12-28T13:23:45.536Z,9.15
2022-12-28T13:26:14.807Z,9.93
2022-12-28T13:29:03.874Z,9.60
2022-12-28T13:31:36.203Z,9.30
2022-12-28T13:34:23.724Z,9.38
2022-12-28T13:36:59.439Z,9.35
2022-12-28T13:39:29.055Z,8.85
2022-12-28T13:42:03.385Z,8.90
2022-12-28T13:44:39.631Z,8.88
2022-12-28T13:47:27.712Z,8.55
2022-12-28T13:49:57.616Z,8.23
2022-12-28T13:52:31.454Z,9.25
2022-12-28T13:55:03.779Z,8.80
2022-12-28T13:57:46.346Z,7.97
2022-12-28T14:00:20.653Z,7.90
2022-12-28T14:02:50.514Z,8.77
2022-12-28T14:05:24.289Z,11.02
2022-12-28T14:07:54.430Z,9.88
2022-12-28T14:10:22.540Z,9.82
2022-12-28T14:12:50.623Z,10.10
2022-12-28T14:15:18.513Z,18.38
2022-12-28T14:17:47.582Z,8.27
2022-12-28T14:20:14.758Z,11.00
2022-12-28T14:22:42.028Z,8.07
2022-12-28T14:25:20.369Z,9.43
2022-12-28T14:28:06.187Z,8.93
2022-12-28T14:30:42.223Z,7.18
2022-12-28T14:33:24.741Z,7.80
2022-12-28T14:35:59.292Z,7.93
2022-12-28T14:38:32.805Z,7.85
2022-12-28T14:41:02.282Z,7.32
2022-12-28T14:43:34.766Z,6.72
2022-12-28T14:46:38.317Z,6.60
2022-12-28T14:51:51.184Z,7.40
2022-12-28T14:54:26.218Z,7.13
2022-12-28T14:57:02.622Z,6.32
2022-12-28T14:59:37.851Z,6.82
2022-12-28T15:02:27.217Z,6.78
2022-12-28T15:05:00.326Z,6.82
2022-12-28T15:07:28.102Z,7.13
2022-12-28T15:09:55.147Z,7.20
2022-12-28T15:12:23.123Z,7.00
2022-12-28T15:14:50.377Z,6.85
2022-12-28T15:17:18.279Z,7.40
2022-12-28T15:19:45.859Z,6.97
2022-12-28T15:22:13.858Z,7.53
2022-12-28T15:24:45.347Z,7.18
2022-12-28T15:27:12.941Z,6.45
2022-12-28T15:30:04.188Z,6.55
2022-12-28T15:32:27.874Z,7.47
2022-12-28T15:34:55.016Z,7.28
2022-12-28T15:37:22.109Z,14.90
2022-12-28T15:39:49.230Z,7.30
2022-12-28T15:42:16.362Z,7.25
2022-12-28T15:44:43.651Z,7.25
2022-12-28T15:47:10.736Z,7.13
2022-12-28T15:49:37.919Z,7.20
2022-12-28T15:52:05.091Z,8.90
2022-12-28T15:54:32.589Z,8.23
2022-12-28T15:56:59.706Z,7.53
2022-12-28T15:59:27.699Z,7.13
2022-12-28T16:01:54.975Z,7.38
2022-12-28T16:04:22.423Z,7.03
2022-12-28T16:06:49.546Z,6.78
2022-12-28T16:09:16.669Z,7.30
2022-12-28T16:11:43.875Z,6.55
2022-12-28T16:14:16.377Z,7.38
2022-12-28T16:16:44.924Z,7.25
2022-12-28T16:19:14.215Z,6.90
2022-12-28T16:21:41.959Z,7.07
2022-12-28T16:24:10.092Z,7.95
2022-12-28T16:26:37.187Z,6.82
2022-12-28T16:29:04.402Z,7.28
2022-12-28T16:31:34.360Z,7.25
2022-12-28T16:34:04.486Z,6.70
2022-12-28T16:36:32.123Z,7.43
2022-12-28T16:38:59.494Z,6.88
2022-12-28T16:41:31.395Z,6.60
2022-12-28T16:44:06.888Z,6.70
2022-12-28T16:46:34.002Z,6.65
2022-12-28T16:49:02.268Z,6.63
2022-12-28T16:51:32.330Z,7.13
2022-12-28T16:53:59.593Z,5.45
2022-12-28T16:56:26.640Z,6.10
2022-12-28T16:58:59.802Z,6.32
2022-12-28T17:01:27.816Z,5.75
2022-12-28T17:04:01.858Z,6.03
2022-12-28T17:06:31.202Z,5.35
2022-12-28T17:09:02.038Z,5.32
2022-12-28T17:11:29.370Z,5.85
2022-12-28T17:14:01.947Z,5.55
2022-12-28T17:16:29.441Z,4.80
2022-12-28T17:18:56.604Z,5.50
2022-12-28T17:21:23.731Z,5.07
2022-12-28T17:23:50.870Z,5.60
2022-12-28T17:26:18.204Z,5.05
2022-12-28T17:28:45.281Z,5.55
2022-12-28T17:31:16.367Z,5.10
2022-12-28T17:33:46.954Z,5.30
2022-12-28T17:36:14.256Z,4.93
2022-12-28T17:38:42.070Z,4.70
2022-12-28T17:41:20.973Z,5.20
2022-12-28T17:43:49.535Z,4.38
2022-12-28T17:46:17.579Z,5.00
2022-12-28T17:48:45.110Z,4.95
2022-12-28T17:51:12.488Z,5.32
2022-12-28T17:53:40.155Z,4.63
2022-12-28T17:56:12.749Z,5.20
2022-12-28T17:58:41.674Z,7.28
2022-12-28T18:01:09.475Z,4.95
2022-12-28T18:03:37.004Z,4.45
2022-12-28T18:06:05.423Z,4.60
2022-12-28T18:08:32.793Z,4.50
2022-12-28T18:10:59.898Z,4.82
2022-12-28T18:13:47.611Z,4.43
2022-12-28T18:16:18.041Z,4.40
2022-12-28T18:18:45.814Z,4.75
2022-12-28T18:21:21.076Z,4.57
2022-12-28T18:23:50.904Z,5.07
2022-12-28T18:26:20.868Z,4.75
2022-12-28T18:28:48.169Z,4.55
2022-12-28T18:31:15.407Z,4.30
2022-12-28T18:33:43.261Z,4.60
2022-12-28T18:36:17.089Z,4.50
2022-12-28T18:38:45.090Z,4.72
2022-12-28T18:41:13.808Z,4.78
2022-12-28T18:43:41.483Z,4.80
2022-12-28T18:46:09.257Z,4.57
2022-12-28T18:48:38.969Z,4.90
2022-12-28T18:51:12.852Z,5.20
2022-12-28T18:53:40.183Z,4.88
2022-12-28T18:56:07.409Z,4.57
2022-12-28T18:58:37.073Z,4.43
2022-12-28T19:01:32.406Z,4.28
2022-12-28T19:04:01.069Z,4.45
2022-12-28T19:06:29.468Z,4.72
2022-12-28T19:09:02.555Z,4.50
2022-12-28T19:13:57.230Z,4.03
2022-12-28T19:16:31.064Z,3.90
2022-12-28T19:18:59.335Z,3.63
2022-12-28T19:21:28.141Z,3.55
2022-12-28T19:23:57.781Z,3.85
2022-12-28T19:26:25.615Z,3.63
2022-12-28T19:28:53.270Z,3.65
2022-12-28T19:31:20.896Z,4.90
2022-12-28T19:33:48.222Z,3.63
2022-12-28T19:36:15.396Z,3.40
2022-12-28T19:38:42.825Z,4.10
2022-12-28T19:41:15.773Z,4.30
2022-12-28T19:46:12.975Z,4.45
2022-12-28T19:48:40.308Z,4.10
2022-12-28T19:51:09.651Z,3.95
2022-12-28T19:53:40.145Z,4.53
2022-12-28T19:56:17.232Z,4.35
2022-12-28T19:58:45.683Z,3.88
2022-12-28T20:01:19.864Z,3.95
2022-12-28T20:03:47.569Z,3.85
2022-12-28T20:06:21.575Z,3.75
2022-12-28T20:08:54.134Z,3.67
2022-12-28T20:11:22.299Z,3.75
2022-12-28T20:13:59.760Z,3.25
2022-12-28T20:16:29.099Z,2.95
2022-12-28T20:18:57.024Z,3.50
2022-12-28T20:21:25.969Z,2.92
2022-12-28T20:23:54.559Z,2.88
2022-12-28T20:26:24.771Z,3.33
2022-12-28T20:28:52.539Z,3.20
2022-12-28T20:31:19.958Z,2.80
2022-12-28T20:33:47.387Z,3.63
2022-12-28T20:36:17.326Z,2.75
2022-12-28T20:38:44.515Z,3.58
2022-12-28T20:41:45.883Z,3.00
2022-12-28T20:44:16.392Z,3.92
2022-12-28T20:46:44.757Z,3.65
2022-12-28T20:49:13.008Z,3.42
2022-12-28T20:51:42.551Z,3.40
2022-12-28T20:54:10.517Z,3.05
2022-12-28T20:56:38.730Z,3.30
2022-12-28T20:59:06.300Z,3.35
2022-12-28T21:01:36.090Z,2.95
2022-12-28T21:04:03.802Z,2.83
2022-12-28T21:06:30.963Z,2.85
2022-12-28T21:08:58.538Z,2.92
2022-12-28T21:11:26.398Z,2.70
2022-12-28T21:13:53.506Z,3.28
2022-12-28T21:16:20.592Z,3.00
2022-12-28T21:18:49.393Z,2.80
2022-12-28T21:21:18.900Z,3.40
2022-12-28T21:23:46.128Z,2.78
2022-12-28T21:26:15.889Z,3.00
2022-12-28T21:28:43.624Z,2.97
2022-12-28T21:31:11.603Z,2.90
2022-12-28T21:33:39.632Z,2.90
2022-12-28T21:36:12.956Z,2.70
2022-12-28T21:38:41.018Z,3.22
2022-12-28T21:41:37.407Z,3.13
2022-12-28T21:44:08.973Z,2.70
2022-12-28T21:46:36.454Z,2.78
2022-12-28T21:49:03.995Z,3.20
2022-12-28T21:51:31.801Z,2.70
2022-12-28T21:54:00.573Z,2.63
2022-12-28T21:56:28.639Z,2.83
2022-12-28T21:58:57.277Z,2.80
2022-12-28T22:01:43.128Z,3.00
2022-12-28T22:04:31.951Z,2.67
2022-12-28T22:06:59.544Z,2.00
2022-12-28T22:09:45.956Z,2.70
2022-12-28T22:12:32.648Z,2.45
2022-12-28T22:15:19.206Z,2.50
2022-12-28T22:17:46.543Z,2.42
2022-12-28T22:20:15.709Z,2.10
2022-12-28T22:22:43.888Z,2.80
2022-12-28T22:25:12.278Z,2.20
2022-12-28T22:27:40.733Z,1.95
2022-12-28T22:30:08.502Z,2.00
2022-12-28T22:32:35.600Z,1.95
2022-12-28T22:35:02.791Z,2.20
2022-12-28T22:37:33.738Z,2.00
2022-12-28T22:40:01.432Z,1.90
2022-12-28T22:42:30.548Z,1.80
2022-12-28T22:44:57.669Z,1.67
2022-12-28T22:47:28.170Z,1.83
2022-12-28T22:49:55.527Z,1.75
2022-12-28T22:52:22.615Z,1.80
2022-12-28T22:54:50.054Z,2.15
2022-12-28T22:57:17.222Z,1.90
2022-12-28T22:59:44.691Z,1.80
2022-12-28T23:02:11.947Z,1.92
2022-12-28T23:04:39.253Z,1.75
2022-12-28T23:07:06.393Z,1.70
2022-12-28T23:09:33.834Z,1.60
2022-12-28T23:12:01.183Z,1.52
2022-12-28T23:14:47.194Z,1.33
2022-12-28T23:17:16.029Z,2.10
2022-12-28T23:20:03.014Z,1.70
2022-12-28T23:22:54.307Z,1.50
2022-12-28T23:25:42.819Z,1.70
2022-12-28T23:28:13.385Z,1.67
2022-12-28T23:30:44.330Z,2.08
2022-12-28T23:33:11.582Z,1.63
2022-12-28T23:35:38.862Z,1.80
2022-12-28T23:38:06.285Z,1.60
2022-12-28T23:40:33.429Z,1.42
2022-12-28T23:43:00.488Z,1.95
2022-12-28T23:45:27.626Z,1.60
2022-12-28T23:47:55.443Z,1.70
2022-12-28T23:50:23.056Z,1.70
2022-12-28T23:52:50.242Z,1.80
2022-12-28T23:55:17.648Z,1.70
2022-12-28T23:57:44.811Z,1.70
